createdAt,value
2019-05-10T00:00:11.365Z,2.13
2019-05-10T00:02:58.668Z,2.43
2019-05-10T00:05:46.440Z,2.60
2019-05-10T00:08:33.443Z,2.23
2019-05-10T00:11:08.691Z,2.60
2019-05-10T00:13:39.209Z,2.67
2019-05-10T00:16:08.488Z,2.40
2019-05-10T00:18:37.360Z,2.83
2019-05-10T00:21:06.402Z,1.90
2019-05-10T00:23:35.258Z,2.13
2019-05-10T00:26:04.137Z,3.20
2019-05-10T00:28:33.176Z,1.83
2019-05-10T00:31:02.045Z,2.63
2019-05-10T00:33:30.959Z,2.10
2019-05-10T00:35:59.748Z,2.23
2019-05-10T00:38:28.716Z,1.47
2019-05-10T00:40:57.533Z,2.70
2019-05-10T00:43:26.397Z,2.20
2019-05-10T00:45:55.522Z,2.10
2019-05-10T00:48:24.412Z,2.83
2019-05-10T00:50:53.207Z,2.33
2019-05-10T00:53:22.511Z,1.33
2019-05-10T00:55:51.398Z,2.70
2019-05-10T00:58:20.390Z,2.70
2019-05-10T01:00:49.487Z,1.97
2019-05-10T01:03:18.487Z,2.23
2019-05-10T01:05:47.373Z,2.50
2019-05-10T01:08:16.121Z,2.47
2019-05-10T01:10:44.929Z,1.47
2019-05-10T01:13:13.775Z,2.17
2019-05-10T01:15:46.833Z,2.77
2019-05-10T01:18:14.597Z,2.13
2019-05-10T01:20:43.593Z,2.73
2019-05-10T01:23:12.901Z,2.87
2019-05-10T01:25:41.655Z,2.60
2019-05-10T01:28:10.546Z,2.50
2019-05-10T01:30:39.674Z,2.70
2019-05-10T01:33:08.571Z,1.33
2019-05-10T01:35:37.455Z,2.70
2019-05-10T01:38:06.161Z,2.40
2019-05-10T01:40:35.004Z,2.80
2019-05-10T01:43:04.017Z,2.07
2019-05-10T01:45:33.230Z,2.03
2019-05-10T01:48:02.127Z,2.70
2019-05-10T01:50:31.013Z,2.73
2019-05-10T01:53:00.351Z,1.93
2019-05-10T01:55:29.517Z,3.07
2019-05-10T01:57:58.407Z,3.10
2019-05-10T02:00:27.374Z,3.40
2019-05-10T02:02:56.419Z,2.53
2019-05-10T02:05:25.387Z,3.43
2019-05-10T02:07:54.139Z,2.67
2019-05-10T02:10:23.060Z,2.83
2019-05-10T02:12:51.935Z,3.10
2019-05-10T02:15:20.961Z,2.70
2019-05-10T02:17:49.725Z,3.20
2019-05-10T02:20:18.822Z,3.43
2019-05-10T02:22:47.843Z,2.80
2019-05-10T02:25:17.139Z,3.53
2019-05-10T02:27:46.033Z,2.80
2019-05-10T02:30:15.336Z,2.83
2019-05-10T02:32:44.093Z,3.20
2019-05-10T02:35:13.026Z,2.93
2019-05-10T02:37:42.221Z,3.03
2019-05-10T02:40:11.074Z,3.00
2019-05-10T02:42:39.971Z,3.13
2019-05-10T02:45:09.588Z,2.87
2019-05-10T02:47:39.214Z,2.60
2019-05-10T02:50:08.328Z,2.60
2019-05-10T02:52:37.170Z,3.07
2019-05-10T02:55:06.768Z,3.23
2019-05-10T02:57:38.016Z,2.30
2019-05-10T03:00:07.762Z,2.77
2019-05-10T03:02:37.843Z,2.10
2019-05-10T03:05:08.288Z,2.47
2019-05-10T03:07:40.019Z,2.27
2019-05-10T03:10:10.749Z,3.30
2019-05-10T03:12:42.650Z,3.17
2019-05-10T03:15:13.072Z,3.10
2019-05-10T03:17:42.707Z,2.50
2019-05-10T03:20:13.452Z,3.60
2019-05-10T03:22:43.212Z,2.37
2019-05-10T03:25:12.995Z,3.40
2019-05-10T03:27:42.054Z,3.67
2019-05-10T03:30:11.496Z,3.63
2019-05-10T03:32:40.325Z,4.00
2019-05-10T03:35:09.279Z,4.17
2019-05-10T03:37:38.048Z,4.27
2019-05-10T03:40:08.310Z,4.47
2019-05-10T03:42:37.093Z,3.97
2019-05-10T03:45:07.579Z,4.03
2019-05-10T03:47:36.328Z,3.80
2019-05-10T03:50:08.990Z,3.87
2019-05-10T03:52:37.814Z,3.50
2019-05-10T03:55:07.241Z,3.77
2019-05-10T03:57:36.042Z,3.90
2019-05-10T04:00:12.895Z,4.10
2019-05-10T04:02:42.646Z,3.90
2019-05-10T04:05:12.123Z,3.90
2019-05-10T04:07:40.872Z,4.03
2019-05-10T04:10:10.094Z,4.33
2019-05-10T04:12:38.863Z,4.60
2019-05-10T04:15:08.900Z,4.27
2019-05-10T04:17:37.823Z,4.70
2019-05-10T04:20:09.554Z,4.77
2019-05-10T04:22:38.302Z,5.10
2019-05-10T04:25:07.897Z,4.77
2019-05-10T04:27:36.670Z,4.30
2019-05-10T04:30:09.202Z,4.70
2019-05-10T04:32:38.069Z,4.40
2019-05-10T04:35:07.908Z,4.50
2019-05-10T04:37:36.742Z,4.13
2019-05-10T04:40:06.910Z,4.97
2019-05-10T04:42:35.696Z,4.70
2019-05-10T04:45:05.766Z,4.60
2019-05-10T04:47:34.497Z,4.10
2019-05-10T04:50:04.070Z,4.13
2019-05-10T04:52:32.889Z,4.23
2019-05-10T04:55:01.861Z,4.40
2019-05-10T04:57:47.930Z,4.60
2019-05-10T05:00:02.700Z,4.53
2019-05-10T05:02:31.607Z,4.33
2019-05-10T05:05:00.500Z,4.20
2019-05-10T05:07:29.363Z,3.87
2019-05-10T05:09:58.000Z,4.57
2019-05-10T05:12:26.754Z,4.07
2019-05-10T05:14:55.509Z,3.50
2019-05-10T05:17:24.314Z,4.30
2019-05-10T05:19:53.292Z,4.87
2019-05-10T05:22:22.125Z,4.73
2019-05-10T05:24:55.209Z,4.47
2019-05-10T05:27:21.719Z,3.20
2019-05-10T05:29:50.644Z,4.60
2019-05-10T05:32:19.324Z,3.60
2019-05-10T05:34:48.186Z,4.57
2019-05-10T05:37:17.125Z,4.17
2019-05-10T05:39:45.878Z,4.30
2019-05-10T05:42:16.106Z,4.30
2019-05-10T05:44:45.325Z,3.60
2019-05-10T05:47:14.136Z,4.00
2019-05-10T05:49:43.008Z,3.77
2019-05-10T05:52:11.902Z,4.20
2019-05-10T05:54:40.615Z,3.70
2019-05-10T05:57:09.341Z,3.77
2019-05-10T05:59:38.125Z,3.83
2019-05-10T06:02:09.037Z,3.73
2019-05-10T06:04:40.868Z,3.43
2019-05-10T06:07:07.832Z,3.20
2019-05-10T06:09:38.029Z,3.53
2019-05-10T06:12:07.526Z,3.87
2019-05-10T06:14:37.408Z,3.57
2019-05-10T06:17:06.246Z,3.67
2019-05-10T06:19:35.030Z,3.17
2019-05-10T06:22:06.755Z,3.77
2019-05-10T06:24:34.593Z,3.30
2019-05-10T06:27:05.098Z,3.17
2019-05-10T06:29:33.761Z,2.77
2019-05-10T06:32:02.619Z,2.63
2019-05-10T06:34:31.866Z,3.30
2019-05-10T06:37:01.968Z,2.90
2019-05-10T06:39:30.991Z,2.80
2019-05-10T06:42:01.304Z,3.00
2019-05-10T06:44:31.089Z,2.20
2019-05-10T06:47:02.114Z,2.53
2019-05-10T06:49:30.814Z,3.20
2019-05-10T06:51:59.821Z,2.73
2019-05-10T06:54:28.841Z,1.93
2019-05-10T06:56:57.812Z,2.17
2019-05-10T06:59:26.732Z,2.03
2019-05-10T07:01:55.619Z,2.37
2019-05-10T07:04:24.475Z,2.70
2019-05-10T07:06:53.316Z,2.40
2019-05-10T07:09:22.118Z,1.97
2019-05-10T07:11:50.925Z,2.07
2019-05-10T07:14:25.406Z,1.90
2019-05-10T07:16:51.398Z,2.20
2019-05-10T07:19:22.825Z,2.70
2019-05-10T07:21:51.564Z,2.13
2019-05-10T07:24:25.323Z,2.40
2019-05-10T07:26:50.789Z,2.03
2019-05-10T07:29:29.699Z,2.03
2019-05-10T07:31:49.924Z,2.30
2019-05-10T07:34:18.757Z,2.10
2019-05-10T07:36:47.775Z,1.63
2019-05-10T07:39:18.217Z,1.47
2019-05-10T07:41:47.188Z,1.43
2019-05-10T07:44:15.927Z,1.43
2019-05-10T07:46:47.126Z,2.20
2019-05-10T07:49:15.325Z,1.70
2019-05-10T07:51:44.280Z,2.37
2019-05-10T07:54:15.169Z,1.70
2019-05-10T07:56:45.737Z,1.43
2019-05-10T07:59:16.153Z,2.67
2019-05-10T08:01:48.991Z,1.60
2019-05-10T08:04:19.762Z,2.63
2019-05-10T08:06:48.704Z,1.53
2019-05-10T08:09:19.289Z,1.30
2019-05-10T08:11:48.563Z,0.87
2019-05-10T08:14:19.293Z,0.90
2019-05-10T08:16:49.829Z,1.40
2019-05-10T08:19:18.683Z,1.40
2019-05-10T08:21:48.811Z,1.27
2019-05-10T08:24:18.653Z,1.30
2019-05-10T08:26:47.455Z,0.80
2019-05-10T08:29:17.016Z,1.17
2019-05-10T08:31:52.833Z,1.40
2019-05-10T08:34:17.496Z,1.17
2019-05-10T08:36:47.648Z,1.10
2019-05-10T08:39:17.022Z,1.20
2019-05-10T08:41:46.035Z,1.30
2019-05-10T08:44:19.792Z,1.43
2019-05-10T08:46:47.003Z,1.20
2019-05-10T08:49:21.768Z,1.47
2019-05-10T08:51:49.215Z,1.30
2019-05-10T08:54:17.335Z,1.10
2019-05-10T08:56:46.697Z,0.97
2019-05-10T08:59:21.207Z,1.10
2019-05-10T09:01:50.680Z,1.40
2019-05-10T09:04:17.087Z,1.40
2019-05-10T09:06:47.668Z,1.20
2019-05-10T09:09:17.853Z,1.00
2019-05-10T09:11:46.848Z,1.07
2019-05-10T09:14:19.974Z,0.70
2019-05-10T09:16:56.266Z,1.20
2019-05-10T09:19:18.834Z,1.00
2019-05-10T09:21:49.675Z,1.87
2019-05-10T09:24:17.454Z,1.20
2019-05-10T09:26:46.916Z,1.80
2019-05-10T09:29:16.947Z,1.13
2019-05-10T09:31:50.432Z,1.30
2019-05-10T09:34:16.300Z,1.00
2019-05-10T09:36:47.152Z,1.70
2019-05-10T09:39:21.368Z,1.33
2019-05-10T09:41:46.021Z,1.20
2019-05-10T09:44:15.020Z,0.80
2019-05-10T09:46:43.739Z,1.00
2019-05-10T09:49:17.754Z,0.70
2019-05-10T09:51:43.130Z,1.10
2019-05-10T09:54:12.051Z,0.80
2019-05-10T09:56:44.393Z,0.80
2019-05-10T09:59:13.309Z,1.20
2019-05-10T10:01:42.175Z,1.30
2019-05-10T10:04:11.811Z,1.30
2019-05-10T10:06:41.906Z,1.40
2019-05-10T10:09:11.312Z,2.50
2019-05-10T10:11:40.400Z,1.67
2019-05-10T10:14:10.160Z,1.40
2019-05-10T10:16:39.246Z,1.13
2019-05-10T10:19:08.107Z,1.50
2019-05-10T10:21:38.898Z,0.90
2019-05-10T10:24:15.664Z,1.53
2019-05-10T10:26:38.102Z,1.50
2019-05-10T10:29:07.442Z,0.90
2019-05-10T10:31:48.329Z,1.17
2019-05-10T10:34:07.720Z,0.93
2019-05-10T10:36:40.413Z,0.60
2019-05-10T10:39:08.172Z,0.70
2019-05-10T10:41:37.266Z,0.90
2019-05-10T10:44:09.139Z,0.87
2019-05-10T10:46:38.200Z,1.40
2019-05-10T10:49:06.988Z,1.30
2019-05-10T10:51:37.782Z,0.80
2019-05-10T10:54:07.436Z,0.90
2019-05-10T10:56:37.418Z,1.50
2019-05-10T10:59:07.571Z,1.10
2019-05-10T11:01:47.300Z,1.37
2019-05-10T11:04:08.193Z,1.50
2019-05-10T11:06:37.747Z,1.43
2019-05-10T11:09:08.784Z,1.40
2019-05-10T11:11:43.942Z,1.50
2019-05-10T11:14:08.138Z,1.77
2019-05-10T11:16:36.991Z,1.10
2019-05-10T11:19:11.132Z,1.10
2019-05-10T11:21:36.913Z,1.20
2019-05-10T11:24:10.484Z,1.30
2019-05-10T11:26:37.033Z,1.40
2019-05-10T11:29:05.906Z,1.30
2019-05-10T11:31:34.748Z,0.80
2019-05-10T11:34:06.121Z,0.93
2019-05-10T11:36:33.970Z,1.13
2019-05-10T11:39:05.855Z,1.07
2019-05-10T11:41:33.688Z,1.17
2019-05-10T11:44:05.255Z,1.17
2019-05-10T11:46:33.205Z,1.27
2019-05-10T11:49:02.258Z,0.90
2019-05-10T11:51:31.688Z,1.20
2019-05-10T11:54:00.839Z,1.07
2019-05-10T11:56:32.057Z,1.03
2019-05-10T11:59:02.469Z,1.10
2019-05-10T12:01:30.660Z,0.90
2019-05-10T12:04:02.114Z,0.80
2019-05-10T12:06:31.967Z,1.17
2019-05-10T12:09:03.873Z,1.03
2019-05-10T12:11:33.810Z,0.70
2019-05-10T12:14:04.218Z,0.83
2019-05-10T12:16:35.057Z,0.90
2019-05-10T12:19:14.848Z,1.23
2019-05-10T12:21:34.385Z,0.90
2019-05-10T12:24:22.873Z,0.80
2019-05-10T12:29:12.137Z,1.40
2019-05-10T12:31:35.168Z,1.40
2019-05-10T12:34:08.897Z,1.00
2019-05-10T12:36:34.754Z,1.40
2019-05-10T12:39:05.859Z,1.20
2019-05-10T12:41:39.711Z,1.03
2019-05-10T12:44:07.466Z,1.27
2019-05-10T12:46:38.838Z,1.10
2019-05-10T12:49:07.246Z,1.33
2019-05-10T12:51:36.033Z,1.00
2019-05-10T12:54:04.809Z,1.27
2019-05-10T12:56:34.836Z,1.10
2019-05-10T12:59:04.391Z,1.60
2019-05-10T13:01:33.880Z,1.30
2019-05-10T13:04:13.877Z,1.53
2019-05-10T13:06:33.633Z,0.90
2019-05-10T13:09:03.239Z,0.87
2019-05-10T13:11:32.044Z,1.60
2019-05-10T13:14:07.105Z,1.43
2019-05-10T13:16:31.657Z,1.40
2019-05-10T13:19:00.471Z,1.20
2019-05-10T13:21:30.374Z,1.13
2019-05-10T13:23:59.561Z,1.00
2019-05-10T13:26:28.346Z,1.60
2019-05-10T13:29:02.218Z,1.80
2019-05-10T13:31:27.745Z,2.07
2019-05-10T13:33:56.868Z,0.80
2019-05-10T13:36:30.798Z,1.43
2019-05-10T13:38:56.571Z,1.40
2019-05-10T13:41:26.522Z,1.03
2019-05-10T13:43:58.735Z,1.10
2019-05-10T13:46:26.431Z,0.93
2019-05-10T13:48:55.219Z,1.00
2019-05-10T13:51:24.045Z,1.10
2019-05-10T13:53:53.792Z,1.37
2019-05-10T13:56:23.393Z,0.87
2019-05-10T13:58:52.516Z,0.90
2019-05-10T14:01:22.133Z,1.00
2019-05-10T14:04:00.373Z,0.77
2019-05-10T14:06:21.650Z,1.10
2019-05-10T14:08:50.642Z,1.10
2019-05-10T14:11:20.078Z,0.70
2019-05-10T14:13:48.768Z,1.10
2019-05-10T14:16:22.410Z,1.00
2019-05-10T14:18:51.071Z,1.20
2019-05-10T14:21:20.230Z,1.03
2019-05-10T14:23:49.423Z,1.20
2019-05-10T14:26:18.478Z,1.10
2019-05-10T14:28:52.284Z,1.00
2019-05-10T14:31:17.855Z,1.10
2019-05-10T14:33:49.569Z,1.20
2019-05-10T14:36:17.897Z,1.03
2019-05-10T14:38:47.238Z,0.80
2019-05-10T14:41:17.269Z,0.83
2019-05-10T14:43:46.193Z,1.13
2019-05-10T14:46:15.316Z,1.07
2019-05-10T14:48:44.207Z,0.93
2019-05-10T14:51:13.984Z,0.73
2019-05-10T14:53:43.657Z,1.00
2019-05-10T14:56:14.131Z,0.80
2019-05-10T14:58:42.948Z,0.93
2019-05-10T15:01:11.842Z,1.40
2019-05-10T15:03:45.416Z,1.03
2019-05-10T15:06:11.471Z,0.83
2019-05-10T15:08:40.358Z,0.80
2019-05-10T15:11:09.434Z,1.17
2019-05-10T15:13:38.251Z,1.10
2019-05-10T15:16:12.377Z,1.20
2019-05-10T15:18:37.694Z,0.73
2019-05-10T15:21:06.666Z,0.97
2019-05-10T15:23:35.439Z,0.80
2019-05-10T15:26:11.458Z,0.90
2019-05-10T15:28:40.243Z,0.83
2019-05-10T15:31:05.555Z,0.87
2019-05-10T15:33:34.375Z,0.80
2019-05-10T15:36:03.268Z,0.80
2019-05-10T15:38:32.081Z,1.10
2019-05-10T15:41:01.180Z,0.70
2019-05-10T15:43:32.271Z,1.00
2019-05-10T15:46:01.095Z,0.70
2019-05-10T15:48:29.975Z,1.10
2019-05-10T15:50:58.800Z,0.87
2019-05-10T15:53:27.863Z,1.03
2019-05-10T15:55:59.136Z,1.03
2019-05-10T15:58:30.508Z,1.20
2019-05-10T16:00:58.525Z,1.00
2019-05-10T16:03:27.524Z,1.00
2019-05-10T16:06:00.801Z,1.23
2019-05-10T16:08:30.190Z,1.63
2019-05-10T16:10:58.912Z,1.70
2019-05-10T16:13:27.736Z,1.07
2019-05-10T16:15:57.637Z,1.27
2019-05-10T16:18:27.156Z,1.13
2019-05-10T16:20:55.976Z,1.20
2019-05-10T16:23:24.937Z,1.00
2019-05-10T16:25:53.916Z,1.07
2019-05-10T16:28:23.362Z,1.00
2019-05-10T16:30:52.334Z,1.10
2019-05-10T16:33:21.157Z,1.57
2019-05-10T16:35:52.090Z,1.20
2019-05-10T16:38:20.943Z,1.00
2019-05-10T16:40:58.019Z,1.20
2019-05-10T16:43:24.766Z,1.00
2019-05-10T16:45:53.171Z,1.10
2019-05-10T16:48:21.924Z,1.00
2019-05-10T16:50:50.846Z,1.33
2019-05-10T16:53:20.111Z,1.00
2019-05-10T16:55:48.880Z,1.30
2019-05-10T16:58:18.132Z,0.90
2019-05-10T17:00:48.045Z,0.80
2019-05-10T17:03:18.327Z,1.03
2019-05-10T17:05:53.398Z,1.30
2019-05-10T17:08:18.383Z,0.70
2019-05-10T17:10:47.270Z,1.10
2019-05-10T17:13:16.031Z,1.03
2019-05-10T17:15:45.046Z,1.30
2019-05-10T17:18:17.766Z,1.10
2019-05-10T17:20:50.622Z,1.07
2019-05-10T17:23:15.225Z,1.00
2019-05-10T17:25:44.658Z,1.20
2019-05-10T17:28:13.514Z,1.30
2019-05-10T17:30:44.915Z,1.10
2019-05-10T17:33:13.234Z,1.10
2019-05-10T17:35:44.018Z,1.00
2019-05-10T17:38:16.170Z,1.23
2019-05-10T17:40:47.538Z,1.43
2019-05-10T17:43:20.858Z,1.00
2019-05-10T17:45:46.190Z,1.03
2019-05-10T17:48:14.891Z,1.27
2019-05-10T17:50:45.770Z,1.30
2019-05-10T17:53:14.412Z,1.20
2019-05-10T17:55:43.330Z,1.23
2019-05-10T17:58:12.173Z,1.30
2019-05-10T18:00:41.047Z,1.40
2019-05-10T18:03:09.780Z,1.30
2019-05-10T18:05:41.207Z,2.10
2019-05-10T18:08:09.422Z,1.50
2019-05-10T18:10:38.295Z,1.33
2019-05-10T18:13:07.224Z,1.53
2019-05-10T18:15:36.052Z,1.67
2019-05-10T18:18:04.862Z,1.67
2019-05-10T18:20:41.210Z,1.50
2019-05-10T18:23:05.612Z,2.13
2019-05-10T18:25:34.491Z,1.90
2019-05-10T18:28:03.521Z,1.53
2019-05-10T18:30:32.538Z,1.50
2019-05-10T18:33:01.628Z,1.63
2019-05-10T18:35:30.489Z,1.47
2019-05-10T18:38:00.947Z,1.57
2019-05-10T18:40:31.837Z,1.70
2019-05-10T18:43:03.843Z,1.77
2019-05-10T18:45:31.103Z,1.80
2019-05-10T18:47:59.858Z,1.60
2019-05-10T18:50:28.859Z,1.37
2019-05-10T18:52:57.741Z,1.50
2019-05-10T18:55:26.579Z,1.40
2019-05-10T18:57:56.255Z,3.73
2019-05-10T19:00:25.294Z,2.23
2019-05-10T19:02:57.083Z,1.80
2019-05-10T19:05:30.897Z,7.50
2019-05-10T19:08:03.163Z,3.33
2019-05-10T19:10:26.070Z,2.90
2019-05-10T19:13:01.248Z,1.80
2019-05-10T19:15:25.696Z,1.90
2019-05-10T19:17:55.197Z,1.70
2019-05-10T19:20:24.312Z,1.80
2019-05-10T19:23:05.248Z,2.17
2019-05-10T19:25:32.743Z,1.80
2019-05-10T19:28:01.628Z,4.90
2019-05-10T19:30:30.621Z,2.00
2019-05-10T19:32:59.507Z,1.90
2019-05-10T19:35:29.836Z,1.90
2019-05-10T19:37:59.853Z,2.40
2019-05-10T19:40:28.950Z,2.13
2019-05-10T19:42:57.934Z,2.30
2019-05-10T19:45:30.585Z,1.87
2019-05-10T19:47:57.674Z,2.07
2019-05-10T19:50:30.759Z,1.80
2019-05-10T19:52:58.434Z,1.97
2019-05-10T19:55:27.939Z,2.33
2019-05-10T19:57:56.788Z,1.93
2019-05-10T20:00:25.993Z,2.00
2019-05-10T20:02:54.916Z,1.87
2019-05-10T20:05:23.782Z,2.03
2019-05-10T20:07:53.716Z,2.30
2019-05-10T20:10:22.614Z,2.33
2019-05-10T20:12:51.507Z,2.50
2019-05-10T20:15:20.732Z,2.30
2019-05-10T20:17:49.859Z,2.17
2019-05-10T20:20:19.104Z,2.20
2019-05-10T20:22:50.571Z,16.43
2019-05-10T20:25:19.964Z,2.73
2019-05-10T20:27:48.955Z,2.87
2019-05-10T20:30:19.575Z,2.60
2019-05-10T20:32:48.687Z,2.87
2019-05-10T20:35:17.884Z,2.57
2019-05-10T20:38:00.678Z,2.47
2019-05-10T20:40:17.492Z,3.17
2019-05-10T20:42:46.279Z,3.77
2019-05-10T20:45:15.476Z,2.70
2019-05-10T20:47:44.492Z,3.27
2019-05-10T20:50:13.388Z,2.90
2019-05-10T20:52:42.382Z,2.57
2019-05-10T20:55:12.125Z,3.30
2019-05-10T20:57:40.964Z,3.63
2019-05-10T21:00:10.177Z,3.40
2019-05-10T21:02:39.077Z,3.60
2019-05-10T21:05:08.586Z,3.27
2019-05-10T21:07:37.756Z,3.10
2019-05-10T21:10:07.182Z,3.00
2019-05-10T21:12:36.285Z,2.87
2019-05-10T21:15:07.095Z,2.97
2019-05-10T21:17:35.976Z,3.20
2019-05-10T21:20:07.612Z,3.10
2019-05-10T21:22:36.472Z,3.83
2019-05-10T21:25:08.015Z,3.30
2019-05-10T21:27:36.871Z,3.50
2019-05-10T21:30:07.000Z,3.50
2019-05-10T21:32:35.888Z,3.43
2019-05-10T21:35:05.325Z,3.30
2019-05-10T21:37:34.217Z,3.10
2019-05-10T21:40:03.196Z,3.23
2019-05-10T21:42:32.206Z,3.10
2019-05-10T21:45:00.974Z,2.90
2019-05-10T21:47:30.399Z,2.80
2019-05-10T21:49:59.560Z,3.10
2019-05-10T21:52:29.002Z,3.13
2019-05-10T21:54:57.864Z,3.07
2019-05-10T21:57:26.643Z,2.70
2019-05-10T21:59:55.431Z,2.70
2019-05-10T22:02:24.263Z,2.60
2019-05-10T22:04:53.253Z,2.43
2019-05-10T22:07:22.143Z,2.50
2019-05-10T22:09:50.958Z,2.33
2019-05-10T22:12:20.004Z,2.43
2019-05-10T22:14:48.768Z,2.53
2019-05-10T22:17:18.743Z,3.33
2019-05-10T22:19:47.730Z,2.80
2019-05-10T22:22:16.726Z,2.70
2019-05-10T22:24:45.493Z,2.70
2019-05-10T22:27:14.552Z,3.70
2019-05-10T22:29:43.512Z,3.60
2019-05-10T22:32:12.620Z,2.60
2019-05-10T22:34:41.707Z,2.60
2019-05-10T22:37:10.589Z,2.77
2019-05-10T22:39:39.384Z,2.67
2019-05-10T22:42:08.209Z,3.60
2019-05-10T22:44:37.162Z,2.40
2019-05-10T22:47:06.056Z,2.90
2019-05-10T22:49:34.951Z,2.70
2019-05-10T22:52:04.007Z,3.07
2019-05-10T22:54:32.935Z,2.80
2019-05-10T22:57:01.928Z,2.93
2019-05-10T22:59:30.933Z,3.27
2019-05-10T23:01:59.689Z,2.70
2019-05-10T23:04:28.608Z,3.03
2019-05-10T23:06:57.328Z,2.80
2019-05-10T23:09:26.287Z,3.20
2019-05-10T23:11:55.354Z,2.90
2019-05-10T23:14:24.557Z,3.10
2019-05-10T23:16:54.709Z,2.67
2019-05-10T23:19:23.802Z,2.87
2019-05-10T23:21:54.235Z,3.00
2019-05-10T23:24:24.758Z,3.10
2019-05-10T23:26:53.526Z,3.53
2019-05-10T23:29:22.552Z,2.63
2019-05-10T23:31:51.404Z,3.23
2019-05-10T23:34:20.050Z,3.10
2019-05-10T23:36:49.100Z,3.37
2019-05-10T23:39:18.007Z,3.23
2019-05-10T23:41:46.907Z,3.33
2019-05-10T23:44:16.000Z,3.40
2019-05-10T23:46:44.804Z,3.37
2019-05-10T23:49:13.679Z,4.27
2019-05-10T23:51:42.475Z,3.37
2019-05-10T23:54:11.462Z,3.60
2019-05-10T23:56:40.300Z,3.27
2019-05-10T23:59:09.251Z,3.63
